createdAt,value
2018-05-15T00:00:35.094Z,9.67
2018-05-15T00:03:03.220Z,11.60
2018-05-15T00:05:32.481Z,11.80
2018-05-15T00:08:01.378Z,11.90
2018-05-15T00:10:29.508Z,10.43
2018-05-15T00:12:58.954Z,11.37
2018-05-15T00:15:27.089Z,10.43
2018-05-15T00:17:57.115Z,10.80
2018-05-15T00:20:25.361Z,10.43
2018-05-15T00:22:53.508Z,11.10
2018-05-15T00:25:22.397Z,10.00
2018-05-15T00:27:50.948Z,9.63
2018-05-15T00:30:19.765Z,11.67
2018-05-15T00:32:48.663Z,10.00
2018-05-15T00:35:16.813Z,9.60
2018-05-15T00:37:44.950Z,10.40
2018-05-15T00:40:13.210Z,10.10
2018-05-15T00:42:42.620Z,10.90
2018-05-15T00:45:10.786Z,11.23
2018-05-15T00:47:39.688Z,10.33
2018-05-15T00:50:07.846Z,11.57
2018-05-15T00:52:36.746Z,11.07
2018-05-15T00:55:17.568Z,10.80
2018-05-15T00:57:45.719Z,11.93
2018-05-15T01:00:13.834Z,11.67
2018-05-15T01:02:43.597Z,11.50
2018-05-15T01:05:11.725Z,11.00
2018-05-15T01:07:41.414Z,9.60
2018-05-15T01:10:09.724Z,10.73
2018-05-15T01:12:39.888Z,9.23
2018-05-15T01:15:09.213Z,11.27
2018-05-15T01:17:38.455Z,9.67
2018-05-15T01:20:06.570Z,9.90
2018-05-15T01:22:34.722Z,10.00
2018-05-15T01:25:02.845Z,8.37
2018-05-15T01:27:32.148Z,8.60
2018-05-15T01:30:01.033Z,8.40
2018-05-15T01:32:29.188Z,7.87
2018-05-15T01:34:59.002Z,7.87
2018-05-15T01:37:27.136Z,9.20
2018-05-15T01:39:55.286Z,8.53
2018-05-15T01:42:23.800Z,8.43
2018-05-15T01:44:52.128Z,8.20
2018-05-15T01:47:21.022Z,9.13
2018-05-15T01:49:50.003Z,9.77
2018-05-15T01:52:18.501Z,8.33
2018-05-15T01:54:46.619Z,9.03
2018-05-15T01:57:17.170Z,9.20
2018-05-15T01:59:45.289Z,8.10
2018-05-15T02:02:13.410Z,7.87
2018-05-15T02:04:42.726Z,9.27
2018-05-15T02:07:13.764Z,9.00
2018-05-15T02:09:43.014Z,8.90
2018-05-15T02:12:11.124Z,7.93
2018-05-15T02:14:39.269Z,8.20
2018-05-15T02:17:07.405Z,8.13
2018-05-15T02:19:36.721Z,9.63
2018-05-15T02:22:05.100Z,7.90
2018-05-15T02:24:33.230Z,9.07
2018-05-15T02:27:01.353Z,8.57
2018-05-15T02:29:29.504Z,8.80
2018-05-15T02:32:00.850Z,9.87
2018-05-15T02:34:29.684Z,9.20
2018-05-15T02:36:58.354Z,10.13
2018-05-15T02:39:26.496Z,8.73
2018-05-15T02:41:54.705Z,9.37
2018-05-15T02:44:22.856Z,8.57
2018-05-15T02:46:50.973Z,9.63
2018-05-15T02:49:19.978Z,10.13
2018-05-15T02:51:49.781Z,9.27
2018-05-15T02:54:19.076Z,8.47
2018-05-15T02:56:47.961Z,8.00
2018-05-15T02:59:16.930Z,8.30
2018-05-15T03:01:45.110Z,8.20
2018-05-15T03:04:14.016Z,7.60
2018-05-15T03:06:42.155Z,8.17
2018-05-15T03:09:12.308Z,8.90
2018-05-15T03:11:41.194Z,8.93
2018-05-15T03:14:10.077Z,10.53
2018-05-15T03:16:38.989Z,11.07
2018-05-15T03:19:07.114Z,10.80
2018-05-15T03:21:35.264Z,9.53
2018-05-15T03:24:04.159Z,10.90
2018-05-15T03:26:32.310Z,12.17
2018-05-15T03:29:00.436Z,73.53
2018-05-15T03:31:28.581Z,58.63
2018-05-15T03:33:56.709Z,35.70
2018-05-15T03:36:24.856Z,28.50
2018-05-15T03:38:52.985Z,28.97
2018-05-15T03:41:21.148Z,30.27
2018-05-15T03:43:49.274Z,15.83
2018-05-15T03:46:17.411Z,17.37
2018-05-15T03:48:45.550Z,16.33
2018-05-15T03:51:13.682Z,13.60
2018-05-15T03:53:41.827Z,12.27
2018-05-15T03:56:09.969Z,11.07
2018-05-15T03:58:38.111Z,11.70
2018-05-15T04:01:17.905Z,11.10
2018-05-15T04:03:57.768Z,12.10
2018-05-15T04:06:37.804Z,12.03
2018-05-15T04:09:06.806Z,14.27
2018-05-15T04:11:34.948Z,13.50
2018-05-15T04:14:03.113Z,11.40
2018-05-15T04:16:31.244Z,11.70
2018-05-15T04:18:59.388Z,11.93
2018-05-15T04:21:27.569Z,11.33
2018-05-15T04:23:55.714Z,11.07
2018-05-15T04:26:23.840Z,11.10
2018-05-15T04:28:51.992Z,9.93
2018-05-15T04:31:20.976Z,10.80
2018-05-15T04:33:49.111Z,10.10
2018-05-15T04:36:17.237Z,11.07
2018-05-15T04:38:45.383Z,11.10
2018-05-15T04:41:13.520Z,10.53
2018-05-15T04:43:41.830Z,11.17
2018-05-15T04:46:09.805Z,10.93
2018-05-15T04:48:37.932Z,12.27
2018-05-15T04:51:06.088Z,11.87
2018-05-15T04:53:34.225Z,11.27
2018-05-15T04:56:02.381Z,12.37
2018-05-15T04:58:30.508Z,11.90
2018-05-15T05:00:58.660Z,13.03
2018-05-15T05:03:26.804Z,15.30
2018-05-15T05:05:54.956Z,13.33
2018-05-15T05:08:23.100Z,12.57
2018-05-15T05:10:51.436Z,12.80
2018-05-15T05:13:19.540Z,11.30
2018-05-15T05:15:47.693Z,10.73
2018-05-15T05:18:16.584Z,11.97
2018-05-15T05:20:44.740Z,11.40
2018-05-15T05:23:13.639Z,11.03
2018-05-15T05:25:42.545Z,11.90
2018-05-15T05:28:10.676Z,10.87
2018-05-15T05:30:38.861Z,9.53
2018-05-15T05:33:07.748Z,9.63
2018-05-15T05:35:35.910Z,11.10
2018-05-15T05:38:04.037Z,9.40
2018-05-15T05:40:32.168Z,9.37
2018-05-15T05:43:01.465Z,11.13
2018-05-15T05:45:29.620Z,10.90
2018-05-15T05:47:57.742Z,10.87
2018-05-15T05:50:25.901Z,11.60
2018-05-15T05:52:54.042Z,10.90
2018-05-15T05:55:22.985Z,16.37
2018-05-15T05:57:51.116Z,12.07
2018-05-15T06:00:19.292Z,11.80
2018-05-15T06:02:48.204Z,11.03
2018-05-15T06:05:16.344Z,12.30
2018-05-15T06:07:45.253Z,14.40
2018-05-15T06:10:13.394Z,13.67
2018-05-15T06:12:41.540Z,12.90
2018-05-15T06:15:09.665Z,12.70
2018-05-15T06:17:37.820Z,12.63
2018-05-15T06:20:06.708Z,11.93
2018-05-15T06:22:35.634Z,14.00
2018-05-15T06:25:03.760Z,12.63
2018-05-15T06:27:31.999Z,10.73
2018-05-15T06:30:00.047Z,12.33
2018-05-15T06:32:28.293Z,12.27
2018-05-15T06:34:56.332Z,10.13
2018-05-15T06:37:24.467Z,9.90
2018-05-15T06:39:52.589Z,8.43
2018-05-15T06:42:21.502Z,8.93
2018-05-15T06:44:50.511Z,8.80
2018-05-15T06:47:18.549Z,10.20
2018-05-15T06:49:47.433Z,9.10
2018-05-15T06:52:16.339Z,11.60
2018-05-15T06:54:44.463Z,10.23
2018-05-15T06:57:12.606Z,11.00
2018-05-15T06:59:40.736Z,9.17
2018-05-15T07:02:09.624Z,8.77
2018-05-15T07:04:38.540Z,8.03
2018-05-15T07:07:06.666Z,8.80
2018-05-15T07:09:35.133Z,8.37
2018-05-15T07:12:03.244Z,9.30
2018-05-15T07:14:32.166Z,9.20
2018-05-15T07:17:00.283Z,8.07
2018-05-15T07:19:28.486Z,8.43
2018-05-15T07:21:56.995Z,8.20
2018-05-15T07:24:25.115Z,8.40
2018-05-15T07:26:53.244Z,8.63
2018-05-15T07:29:21.380Z,7.33
2018-05-15T07:31:49.510Z,7.63
2018-05-15T07:34:17.660Z,7.60
2018-05-15T07:36:45.781Z,7.87
2018-05-15T07:39:13.932Z,6.30
2018-05-15T07:41:42.063Z,6.30
2018-05-15T07:44:10.208Z,5.67
2018-05-15T07:46:39.102Z,5.90
2018-05-15T07:49:07.244Z,5.43
2018-05-15T07:51:35.379Z,5.13
2018-05-15T07:54:03.520Z,4.97
2018-05-15T07:56:31.643Z,8.03
2018-05-15T07:59:00.164Z,6.70
2018-05-15T08:01:29.060Z,5.27
2018-05-15T08:03:57.180Z,5.87
2018-05-15T08:06:25.333Z,4.13
2018-05-15T08:08:53.823Z,4.40
2018-05-15T08:11:21.954Z,7.90
2018-05-15T08:13:50.090Z,5.57
2018-05-15T08:16:18.265Z,4.23
2018-05-15T08:18:46.372Z,6.07
2018-05-15T08:21:14.537Z,4.33
2018-05-15T08:23:42.658Z,4.03
2018-05-15T08:26:10.790Z,3.57
2018-05-15T08:28:38.921Z,4.40
2018-05-15T08:31:07.063Z,4.43
2018-05-15T08:33:35.191Z,4.30
2018-05-15T08:36:03.333Z,4.20
2018-05-15T08:38:31.451Z,4.00
2018-05-15T08:40:59.583Z,4.73
2018-05-15T08:43:28.470Z,4.57
2018-05-15T08:45:56.960Z,5.37
2018-05-15T08:48:25.841Z,3.90
2018-05-15T08:50:54.744Z,3.80
2018-05-15T08:53:23.645Z,4.30
2018-05-15T08:55:51.773Z,3.97
2018-05-15T08:58:19.929Z,5.57
2018-05-15T09:00:48.044Z,3.80
2018-05-15T09:03:16.952Z,3.93
2018-05-15T09:05:45.088Z,4.83
2018-05-15T09:08:13.260Z,3.80
2018-05-15T09:10:41.409Z,4.00
2018-05-15T09:13:09.540Z,4.00
2018-05-15T09:15:37.680Z,3.80
2018-05-15T09:18:06.586Z,5.13
2018-05-15T09:20:35.461Z,4.00
2018-05-15T09:23:04.362Z,4.30
2018-05-15T09:25:33.243Z,4.20
2018-05-15T09:28:02.180Z,6.13
2018-05-15T09:30:30.319Z,4.00
2018-05-15T09:32:58.464Z,4.43
2018-05-15T09:35:26.635Z,3.93
2018-05-15T09:37:54.770Z,3.63
2018-05-15T09:40:22.944Z,4.07
2018-05-15T09:42:51.093Z,5.33
2018-05-15T09:45:19.215Z,4.20
2018-05-15T09:47:47.348Z,3.80
2018-05-15T09:50:15.480Z,3.67
2018-05-15T09:52:44.369Z,3.33
2018-05-15T09:55:13.277Z,4.60
2018-05-15T09:57:41.401Z,3.80
2018-05-15T10:00:09.549Z,4.40
2018-05-15T10:02:37.672Z,4.00
2018-05-15T10:05:06.580Z,3.50
2018-05-15T10:07:34.782Z,4.90
2018-05-15T10:10:02.849Z,4.70
2018-05-15T10:12:30.985Z,3.90
2018-05-15T10:14:59.129Z,9.23
2018-05-15T10:17:27.257Z,5.43
2018-05-15T10:19:55.403Z,3.63
2018-05-15T10:22:23.517Z,5.10
2018-05-15T10:24:51.652Z,3.30
2018-05-15T10:27:19.858Z,3.97
2018-05-15T10:29:49.488Z,3.10
2018-05-15T10:32:17.686Z,4.63
2018-05-15T10:34:45.728Z,3.60
2018-05-15T10:37:13.875Z,3.87
2018-05-15T10:39:42.027Z,4.33
2018-05-15T10:42:10.176Z,2.83
2018-05-15T10:44:39.068Z,2.60
2018-05-15T10:47:07.208Z,3.63
2018-05-15T10:49:35.321Z,3.40
2018-05-15T10:52:03.473Z,4.70
2018-05-15T10:54:32.366Z,3.90
2018-05-15T10:57:01.540Z,4.00
2018-05-15T10:59:29.731Z,3.57
2018-05-15T11:01:57.797Z,5.17
2018-05-15T11:04:26.690Z,4.17
2018-05-15T11:06:55.595Z,4.33
2018-05-15T11:09:23.724Z,3.63
2018-05-15T11:11:51.856Z,3.70
2018-05-15T11:14:19.980Z,4.40
2018-05-15T11:16:48.887Z,6.13
2018-05-15T11:19:29.592Z,4.93
2018-05-15T11:22:09.352Z,4.13
2018-05-15T11:24:48.163Z,5.53
2018-05-15T11:27:16.328Z,4.80
2018-05-15T11:29:44.460Z,4.77
2018-05-15T11:32:12.604Z,5.10
2018-05-15T11:34:40.732Z,5.40
2018-05-15T11:37:09.225Z,4.73
2018-05-15T11:39:37.331Z,5.07
2018-05-15T11:42:06.260Z,4.70
2018-05-15T11:44:34.384Z,4.77
2018-05-15T11:47:02.510Z,4.70
2018-05-15T11:49:31.511Z,3.70
2018-05-15T11:52:00.240Z,4.33
2018-05-15T11:54:27.715Z,4.30
2018-05-15T11:56:56.621Z,4.27
2018-05-15T11:59:24.772Z,4.40
2018-05-15T12:01:54.031Z,4.30
2018-05-15T12:04:22.168Z,4.83
2018-05-15T12:06:50.346Z,6.13
2018-05-15T12:09:18.499Z,4.10
2018-05-15T12:11:47.397Z,5.30
2018-05-15T12:14:15.546Z,4.33
2018-05-15T12:16:44.427Z,5.40
2018-05-15T12:19:13.341Z,5.80
2018-05-15T12:21:41.456Z,6.20
2018-05-15T12:24:09.598Z,6.70
2018-05-15T12:26:37.729Z,6.63
2018-05-15T12:29:05.876Z,10.07
2018-05-15T12:31:34.014Z,6.30
2018-05-15T12:34:02.172Z,7.50
2018-05-15T12:36:30.311Z,7.27
2018-05-15T12:38:59.208Z,7.27
2018-05-15T12:41:28.182Z,7.40
2018-05-15T12:43:56.280Z,6.40
2018-05-15T12:46:24.406Z,6.63
2018-05-15T12:48:52.618Z,6.07
2018-05-15T12:51:20.660Z,5.23
2018-05-15T12:53:48.780Z,6.77
2018-05-15T12:56:16.929Z,5.17
2018-05-15T12:58:45.054Z,6.47
2018-05-15T13:01:13.184Z,6.83
2018-05-15T13:03:41.317Z,6.33
2018-05-15T13:06:09.459Z,5.20
2018-05-15T13:08:37.580Z,5.37
2018-05-15T13:11:06.511Z,4.57
2018-05-15T13:13:34.650Z,4.77
2018-05-15T13:16:03.552Z,4.10
2018-05-15T13:18:31.696Z,4.37
2018-05-15T13:20:59.812Z,4.73
2018-05-15T13:23:27.948Z,6.70
2018-05-15T13:25:56.089Z,4.10
2018-05-15T13:28:25.744Z,4.60
2018-05-15T13:30:53.870Z,4.80
2018-05-15T13:33:22.005Z,4.67
2018-05-15T13:35:50.126Z,5.00
2018-05-15T13:38:18.265Z,6.00
2018-05-15T13:40:46.388Z,5.50
2018-05-15T13:43:15.308Z,5.77
2018-05-15T13:45:43.592Z,7.07
2018-05-15T13:48:11.711Z,7.30
2018-05-15T13:50:40.609Z,6.67
2018-05-15T13:53:09.515Z,6.63
2018-05-15T13:55:37.648Z,6.17
2018-05-15T13:58:05.784Z,6.23
2018-05-15T14:00:33.904Z,7.13
2018-05-15T14:03:02.798Z,6.53
2018-05-15T14:05:31.682Z,6.33
2018-05-15T14:07:59.844Z,6.00
2018-05-15T14:10:27.965Z,5.83
2018-05-15T14:12:56.088Z,5.00
2018-05-15T14:15:24.230Z,15.63
2018-05-15T14:17:52.349Z,5.53
2018-05-15T14:20:21.363Z,4.03
2018-05-15T14:22:50.237Z,3.70
2018-05-15T14:25:19.293Z,4.00
2018-05-15T14:27:47.424Z,4.30
2018-05-15T14:30:16.491Z,4.10
2018-05-15T14:32:44.632Z,3.60
2018-05-15T14:35:12.775Z,4.10
2018-05-15T14:37:40.908Z,3.97
2018-05-15T14:40:09.052Z,3.43
2018-05-15T14:42:48.997Z,4.90
2018-05-15T14:45:17.140Z,6.53
2018-05-15T14:47:45.260Z,4.13
2018-05-15T14:50:14.180Z,4.10
2018-05-15T14:52:42.311Z,4.47
2018-05-15T14:55:10.457Z,4.13
2018-05-15T14:57:38.596Z,4.47
2018-05-15T15:00:06.733Z,3.70
2018-05-15T15:02:34.868Z,4.50
2018-05-15T15:05:03.024Z,4.17
2018-05-15T15:07:31.156Z,4.57
2018-05-15T15:09:59.326Z,3.40
2018-05-15T15:12:27.466Z,4.83
2018-05-15T15:14:55.586Z,3.43
2018-05-15T15:17:24.102Z,4.10
2018-05-15T15:19:52.187Z,6.80
2018-05-15T15:22:20.333Z,3.50
2018-05-15T15:24:48.456Z,3.67
2018-05-15T15:27:17.361Z,3.80
2018-05-15T15:29:45.480Z,4.33
2018-05-15T15:32:15.180Z,3.53
2018-05-15T15:34:43.327Z,3.97
2018-05-15T15:37:11.497Z,4.30
2018-05-15T15:39:39.618Z,4.80
2018-05-15T15:42:07.753Z,5.30
2018-05-15T15:44:35.869Z,3.60
2018-05-15T15:47:04.770Z,3.73
2018-05-15T15:49:33.652Z,4.53
2018-05-15T15:52:02.566Z,4.10
2018-05-15T15:54:30.688Z,3.80
2018-05-15T15:56:58.836Z,4.20
2018-05-15T15:59:26.947Z,3.77
2018-05-15T16:01:55.845Z,3.53
2018-05-15T16:06:59.134Z,3.87
2018-05-15T16:09:27.308Z,5.30
2018-05-15T16:11:55.446Z,4.60
2018-05-15T16:14:23.576Z,4.37
2018-05-15T16:16:51.708Z,4.43
2018-05-15T16:19:19.855Z,4.93
2018-05-15T16:21:47.988Z,4.50
2018-05-15T16:24:16.895Z,4.07
2018-05-15T16:26:45.785Z,3.67
2018-05-15T16:29:13.940Z,4.80
2018-05-15T16:31:42.837Z,3.70
2018-05-15T16:34:10.984Z,3.70
2018-05-15T16:36:39.877Z,3.70
2018-05-15T16:39:08.786Z,3.53
2018-05-15T16:41:36.904Z,3.73
2018-05-15T16:44:05.049Z,3.03
2018-05-15T16:46:33.175Z,3.87
2018-05-15T16:49:01.315Z,4.57
2018-05-15T16:51:29.439Z,5.13
2018-05-15T16:53:58.321Z,5.13
2018-05-15T16:56:27.228Z,6.70
2018-05-15T16:58:55.349Z,5.73
2018-05-15T17:01:23.498Z,6.50
2018-05-15T17:03:51.620Z,6.20
2018-05-15T17:06:20.520Z,6.20
2018-05-15T17:08:48.649Z,5.83
2018-05-15T17:11:16.789Z,6.20
2018-05-15T17:13:44.996Z,6.10
2018-05-15T17:16:13.828Z,6.07
2018-05-15T17:18:41.962Z,6.67
2018-05-15T17:21:10.158Z,7.30
2018-05-15T17:23:39.045Z,7.27
2018-05-15T17:26:07.196Z,6.90
2018-05-15T17:28:36.080Z,5.77
2018-05-15T17:31:04.234Z,6.10
2018-05-15T17:33:32.352Z,6.37
2018-05-15T17:36:00.493Z,6.60
2018-05-15T17:38:28.617Z,5.40
2018-05-15T17:40:56.796Z,8.50
2018-05-15T17:43:24.914Z,5.80
2018-05-15T17:45:53.059Z,5.57
2018-05-15T17:48:21.181Z,5.20
2018-05-15T17:50:51.196Z,5.20
2018-05-15T17:53:19.811Z,5.60
2018-05-15T17:55:47.937Z,5.40
2018-05-15T17:58:16.877Z,5.40
2018-05-15T18:00:44.999Z,5.10
2018-05-15T18:03:13.139Z,5.60
2018-05-15T18:05:41.271Z,5.93
2018-05-15T18:08:09.405Z,5.00
2018-05-15T18:10:37.548Z,4.80
2018-05-15T18:13:05.692Z,5.00
2018-05-15T18:15:33.822Z,5.10
2018-05-15T18:18:01.957Z,6.60
2018-05-15T18:20:30.238Z,5.60
2018-05-15T18:22:58.385Z,6.20
2018-05-15T18:25:26.517Z,5.40
2018-05-15T18:27:54.656Z,6.00
2018-05-15T18:30:22.811Z,6.20
2018-05-15T18:32:51.046Z,6.50
2018-05-15T18:35:19.105Z,5.77
2018-05-15T18:37:48.029Z,6.27
2018-05-15T18:40:16.160Z,6.20
2018-05-15T18:42:44.300Z,7.37
2018-05-15T18:45:13.225Z,6.90
2018-05-15T18:47:42.132Z,7.50
2018-05-15T18:50:11.040Z,7.60
2018-05-15T18:52:39.254Z,8.07
2018-05-15T18:55:08.152Z,7.63
2018-05-15T18:57:36.284Z,8.53
2018-05-15T19:00:04.432Z,8.20
2018-05-15T19:02:32.549Z,8.10
2018-05-15T19:05:00.730Z,8.93
2018-05-15T19:07:28.885Z,9.47
2018-05-15T19:09:57.021Z,8.50
2018-05-15T19:12:25.194Z,7.50
2018-05-15T19:14:53.357Z,7.57
2018-05-15T19:17:22.248Z,7.83
2018-05-15T19:19:51.173Z,7.40
2018-05-15T19:22:19.307Z,7.80
2018-05-15T19:24:48.250Z,8.67
2018-05-15T19:27:17.164Z,8.33
2018-05-15T19:29:45.285Z,7.37
2018-05-15T19:32:17.377Z,7.50
2018-05-15T19:34:51.948Z,7.67
2018-05-15T19:37:20.894Z,8.80
2018-05-15T19:39:49.066Z,8.53
2018-05-15T19:42:17.210Z,11.33
2018-05-15T19:44:45.371Z,7.80
2018-05-15T19:47:13.496Z,8.27
2018-05-15T19:49:41.624Z,8.37
2018-05-15T19:52:09.762Z,8.00
2018-05-15T19:54:37.940Z,7.77
2018-05-15T19:57:06.845Z,8.90
2018-05-15T19:59:34.974Z,8.50
2018-05-15T20:02:03.112Z,7.43
2018-05-15T20:04:32.001Z,6.57
2018-05-15T20:07:00.153Z,7.63
2018-05-15T20:09:28.283Z,7.13
2018-05-15T20:11:57.193Z,8.80
2018-05-15T20:14:25.315Z,8.17
2018-05-15T20:16:54.234Z,7.67
2018-05-15T20:19:22.358Z,7.67
2018-05-15T20:21:50.489Z,8.20
2018-05-15T20:24:19.387Z,7.10
2018-05-15T20:26:48.276Z,8.90
2018-05-15T20:29:17.157Z,7.20
2018-05-15T20:31:45.292Z,8.63
2018-05-15T20:34:14.193Z,8.03
2018-05-15T20:36:42.345Z,7.93
2018-05-15T20:39:10.499Z,8.33
2018-05-15T20:41:38.715Z,8.60
2018-05-15T20:44:06.852Z,7.50
2018-05-15T20:46:34.972Z,9.53
2018-05-15T20:49:03.872Z,8.67
2018-05-15T20:51:32.784Z,7.90
2018-05-15T20:54:00.933Z,7.27
2018-05-15T20:56:29.051Z,7.67
2018-05-15T20:58:57.196Z,8.17
2018-05-15T21:01:25.381Z,9.07
2018-05-15T21:03:53.524Z,8.67
2018-05-15T21:06:21.644Z,7.57
2018-05-15T21:08:49.789Z,7.10
2018-05-15T21:11:18.698Z,8.20
2018-05-15T21:13:46.819Z,7.20
2018-05-15T21:16:14.959Z,7.77
2018-05-15T21:18:43.096Z,7.80
2018-05-15T21:21:11.236Z,8.00
2018-05-15T21:23:39.355Z,8.40
2018-05-15T21:26:07.496Z,6.60
2018-05-15T21:28:35.627Z,7.63
2018-05-15T21:31:03.767Z,8.17
2018-05-15T21:33:31.884Z,7.00
2018-05-15T21:36:00.869Z,8.00
2018-05-15T21:38:29.446Z,6.37
2018-05-15T21:40:57.586Z,7.00
2018-05-15T21:43:25.701Z,7.17
2018-05-15T21:45:53.848Z,7.20
2018-05-15T21:48:21.964Z,7.93
2018-05-15T21:50:50.100Z,7.67
2018-05-15T21:53:18.230Z,7.67
2018-05-15T21:55:46.370Z,7.00
2018-05-15T21:58:15.259Z,6.80
2018-05-15T22:00:43.405Z,7.00
2018-05-15T22:03:11.526Z,7.00
2018-05-15T22:05:39.675Z,8.50
2018-05-15T22:08:08.558Z,7.70
2018-05-15T22:10:36.708Z,7.23
2018-05-15T22:13:16.621Z,7.43
2018-05-15T22:15:56.420Z,7.27
2018-05-15T22:18:37.056Z,7.40
2018-05-15T22:21:16.834Z,7.20
2018-05-15T22:23:44.457Z,6.63
2018-05-15T22:26:12.595Z,6.40
2018-05-15T22:28:40.732Z,7.37
2018-05-15T22:31:09.713Z,6.90
2018-05-15T22:33:37.833Z,6.97
2018-05-15T22:36:05.976Z,7.90
2018-05-15T22:38:34.114Z,7.70
2018-05-15T22:41:02.257Z,8.23
2018-05-15T22:43:30.396Z,7.93
2018-05-15T22:45:58.527Z,6.87
2018-05-15T22:48:26.664Z,7.03
2018-05-15T22:50:54.839Z,7.43
2018-05-15T22:53:22.968Z,7.10
2018-05-15T22:55:51.861Z,7.90
2018-05-15T22:58:20.766Z,7.03
2018-05-15T23:00:48.911Z,8.40
2018-05-15T23:03:17.077Z,7.43
2018-05-15T23:05:45.978Z,7.00
2018-05-15T23:08:14.880Z,7.37
2018-05-15T23:10:43.031Z,7.13
2018-05-15T23:13:11.945Z,7.83
2018-05-15T23:15:40.463Z,7.20
2018-05-15T23:18:08.575Z,7.77
2018-05-15T23:20:37.565Z,7.63
2018-05-15T23:23:05.694Z,6.60
2018-05-15T23:25:33.834Z,7.33
2018-05-15T23:28:01.960Z,7.70
2018-05-15T23:30:30.105Z,7.20
2018-05-15T23:32:58.220Z,6.90
2018-05-15T23:35:26.361Z,7.10
2018-05-15T23:37:54.485Z,7.60
2018-05-15T23:40:22.626Z,6.47
2018-05-15T23:42:50.841Z,7.23
2018-05-15T23:45:18.892Z,6.80
2018-05-15T23:47:47.012Z,7.00
2018-05-15T23:50:15.208Z,7.03
2018-05-15T23:52:43.344Z,7.70
2018-05-15T23:55:11.474Z,7.20
2018-05-15T23:57:40.355Z,6.10
